createdAt,value
2022-08-22T00:01:07.723Z,67.32
2022-08-22T00:02:42.423Z,53.38
2022-08-22T00:03:47.403Z,67.14
2022-08-22T00:06:20.436Z,66.82
2022-08-22T00:09:19.125Z,67.10
2022-08-22T00:11:58.020Z,67.23
2022-08-22T00:14:35.132Z,66.91
2022-08-22T00:17:11.836Z,67.08
2022-08-22T00:20:13.287Z,67.01
2022-08-22T00:22:44.648Z,67.58
2022-08-22T00:25:32.231Z,67.12
2022-08-22T00:28:20.829Z,67.47
2022-08-22T00:30:58.016Z,67.27
2022-08-22T00:33:53.591Z,67.27
2022-08-22T00:36:56.571Z,67.31
2022-08-22T00:39:55.425Z,67.39
2022-08-22T00:43:00.440Z,67.29
2022-08-22T00:46:05.685Z,67.46
2022-08-22T00:48:39.217Z,67.54
2022-08-22T00:51:27.957Z,67.79
2022-08-22T00:54:34.223Z,68.34
2022-08-22T00:57:16.092Z,68.48
2022-08-22T00:59:58.745Z,68.64
2022-08-22T01:02:54.592Z,68.46
2022-08-22T01:05:46.026Z,68.73
2022-08-22T01:08:35.049Z,68.94
2022-08-22T01:11:50.771Z,68.87
2022-08-22T01:14:35.128Z,69.03
2022-08-22T01:17:05.719Z,68.88
2022-08-22T01:20:10.715Z,69.28
2022-08-22T01:23:15.487Z,69.29
2022-08-22T01:26:10.213Z,69.43
2022-08-22T01:28:58.109Z,69.09
2022-08-22T01:31:34.756Z,69.59
2022-08-22T01:34:27.571Z,69.24
2022-08-22T01:37:15.791Z,69.40
2022-08-22T01:40:08.392Z,69.34
2022-08-22T01:43:02.364Z,69.53
2022-08-22T01:46:08.179Z,69.68
2022-08-22T01:48:42.098Z,69.12
2022-08-22T01:51:28.496Z,69.23
2022-08-22T01:54:05.839Z,69.37
2022-08-22T01:56:40.001Z,69.15
2022-08-22T01:59:33.849Z,69.21
2022-08-22T02:02:04.689Z,69.67
2022-08-22T02:04:41.200Z,69.27
2022-08-22T02:07:14.518Z,69.65
2022-08-22T02:10:02.797Z,69.33
2022-08-22T02:12:41.873Z,69.61
2022-08-22T02:15:22.900Z,69.08
2022-08-22T02:17:50.500Z,69.40
2022-08-22T02:20:27.924Z,69.25
2022-08-22T02:23:04.654Z,69.58
2022-08-22T02:25:46.461Z,69.52
2022-08-22T02:28:29.741Z,69.16
2022-08-22T02:31:04.598Z,69.18
2022-08-22T02:33:38.017Z,69.38
2022-08-22T02:36:24.823Z,69.50
2022-08-22T02:39:18.849Z,69.54
2022-08-22T02:41:53.700Z,69.75
2022-08-22T02:44:28.860Z,69.73
2022-08-22T02:47:03.199Z,70.01
2022-08-22T02:49:43.606Z,70.39
2022-08-22T02:52:24.620Z,70.44
2022-08-22T02:55:07.443Z,70.68
2022-08-22T02:57:52.754Z,70.60
2022-08-22T03:00:30.749Z,70.79
2022-08-22T03:03:16.317Z,70.95
2022-08-22T03:05:49.102Z,70.91
2022-08-22T03:08:33.830Z,70.60
2022-08-22T03:11:26.909Z,70.56
2022-08-22T03:14:06.241Z,70.42
2022-08-22T03:16:52.832Z,69.90
2022-08-22T03:19:29.625Z,69.90
2022-08-22T03:22:07.207Z,69.84
2022-08-22T03:25:02.061Z,70.13
2022-08-22T03:27:39.476Z,69.99
2022-08-22T03:30:16.901Z,69.56
2022-08-22T03:32:49.205Z,70.03
2022-08-22T03:35:35.097Z,69.43
2022-08-22T03:38:14.987Z,69.52
2022-08-22T03:41:12.887Z,69.51
2022-08-22T03:44:05.395Z,69.52
2022-08-22T03:47:08.105Z,69.14
2022-08-22T03:50:30.513Z,69.00
2022-08-22T03:53:24.989Z,68.72
2022-08-22T03:56:29.599Z,69.04
2022-08-22T03:59:12.401Z,68.45
2022-08-22T04:02:43.182Z,68.38
2022-08-22T04:05:29.735Z,67.85
2022-08-22T04:08:15.449Z,67.47
2022-08-22T04:11:11.640Z,67.58
2022-08-22T04:14:03.642Z,67.82
2022-08-22T04:16:49.387Z,67.59
2022-08-22T04:19:29.863Z,67.24
2022-08-22T04:22:35.687Z,67.58
2022-08-22T04:25:15.368Z,67.42
2022-08-22T04:28:00.788Z,67.93
2022-08-22T04:30:35.468Z,67.11
2022-08-22T04:33:12.530Z,67.85
2022-08-22T04:35:58.482Z,67.77
2022-08-22T04:38:38.300Z,67.97
2022-08-22T04:41:18.621Z,67.94
2022-08-22T04:43:57.106Z,67.71
2022-08-22T04:46:46.478Z,68.20
2022-08-22T04:49:24.744Z,67.87
2022-08-22T04:52:15.624Z,68.11
2022-08-22T04:54:56.618Z,67.64
2022-08-22T04:57:45.501Z,67.57
2022-08-22T05:00:16.029Z,67.71
2022-08-22T05:02:49.856Z,67.64
2022-08-22T05:05:23.650Z,67.51
2022-08-22T05:07:56.322Z,67.82
2022-08-22T05:10:33.520Z,68.00
2022-08-22T05:13:12.420Z,67.53
2022-08-22T05:15:46.036Z,68.05
2022-08-22T05:18:19.582Z,68.54
2022-08-22T05:20:51.069Z,68.15
2022-08-22T05:23:29.198Z,68.59
2022-08-22T05:26:02.709Z,68.81
2022-08-22T05:28:35.545Z,69.47
2022-08-22T05:31:12.714Z,69.24
2022-08-22T05:33:49.133Z,69.51
2022-08-22T05:36:23.297Z,70.56
2022-08-22T05:38:56.791Z,70.61
2022-08-22T05:41:29.019Z,71.53
2022-08-22T05:43:56.665Z,71.68
2022-08-22T05:46:44.294Z,72.37
2022-08-22T05:49:19.336Z,72.44
2022-08-22T05:52:24.921Z,73.36
2022-08-22T05:55:17.435Z,73.19
2022-08-22T05:57:50.922Z,73.98
2022-08-22T06:00:22.535Z,73.92
2022-08-22T06:03:12.391Z,74.06
2022-08-22T06:05:45.284Z,74.54
2022-08-22T06:08:58.573Z,74.82
2022-08-22T06:11:43.013Z,74.53
2022-08-22T06:14:25.496Z,74.75
2022-08-22T06:17:10.490Z,74.36
2022-08-22T06:19:45.099Z,74.34
2022-08-22T06:22:25.978Z,74.39
2022-08-22T06:25:01.038Z,74.78
2022-08-22T06:27:31.187Z,74.48
2022-08-22T06:30:03.037Z,74.46
2022-08-22T06:32:58.921Z,74.55
2022-08-22T06:35:53.833Z,74.47
2022-08-22T06:38:28.532Z,74.54
2022-08-22T06:40:58.635Z,75.03
2022-08-22T06:43:27.025Z,74.72
2022-08-22T06:45:54.823Z,75.20
2022-08-22T06:48:24.337Z,74.91
2022-08-22T06:50:57.148Z,75.17
2022-08-22T06:53:47.864Z,75.67
2022-08-22T06:56:30.318Z,76.06
2022-08-22T06:59:01.661Z,76.37
2022-08-22T07:01:36.207Z,76.76
2022-08-22T07:04:09.489Z,76.46
2022-08-22T07:06:41.623Z,76.75
2022-08-22T07:09:27.877Z,76.79
2022-08-22T07:12:00.404Z,76.71
2022-08-22T07:14:33.210Z,76.60
2022-08-22T07:17:04.564Z,76.55
2022-08-22T07:19:38.501Z,77.01
2022-08-22T07:22:16.209Z,76.75
2022-08-22T07:24:48.625Z,76.67
2022-08-22T07:27:31.923Z,76.21
2022-08-22T07:30:10.143Z,76.29
2022-08-22T07:32:43.274Z,76.16
2022-08-22T07:35:35.825Z,76.31
2022-08-22T07:38:18.955Z,76.98
2022-08-22T07:41:20.155Z,76.96
2022-08-22T07:44:11.121Z,77.15
2022-08-22T07:47:00.871Z,76.91
2022-08-22T07:49:52.961Z,77.05
2022-08-22T07:52:22.359Z,76.82
2022-08-22T07:54:59.829Z,76.99
2022-08-22T07:57:34.559Z,76.81
2022-08-22T08:00:11.751Z,77.24
2022-08-22T08:02:46.359Z,77.54
2022-08-22T08:05:15.368Z,77.03
2022-08-22T08:07:45.610Z,76.76
2022-08-22T08:10:19.447Z,77.36
2022-08-22T08:13:02.478Z,77.47
2022-08-22T08:15:33.922Z,77.18
2022-08-22T08:18:10.516Z,78.01
2022-08-22T08:20:38.632Z,77.84
2022-08-22T08:23:10.102Z,78.14
2022-08-22T08:26:00.529Z,78.88
2022-08-22T08:28:34.836Z,79.58
2022-08-22T08:31:08.824Z,79.70
2022-08-22T08:33:40.752Z,79.72
2022-08-22T08:36:26.476Z,79.66
2022-08-22T08:39:14.079Z,80.65
2022-08-22T08:41:44.576Z,80.67
2022-08-22T08:44:54.341Z,80.08
2022-08-22T08:47:31.385Z,80.31
2022-08-22T08:50:24.183Z,79.74
2022-08-22T08:53:25.415Z,79.33
2022-08-22T08:56:34.463Z,79.52
2022-08-22T08:59:24.770Z,79.32
2022-08-22T09:01:53.371Z,79.25
2022-08-22T09:04:37.337Z,79.16
2022-08-22T09:07:16.907Z,78.45
2022-08-22T09:10:02.978Z,78.84
2022-08-22T09:12:55.995Z,78.33
2022-08-22T09:15:40.776Z,77.30
2022-08-22T09:18:46.082Z,76.80
2022-08-22T09:22:01.893Z,76.60
2022-08-22T09:25:00.543Z,76.64
2022-08-22T09:27:36.042Z,76.86
2022-08-22T09:30:11.749Z,76.71
2022-08-22T09:32:48.672Z,76.46
2022-08-22T09:35:28.161Z,76.36
2022-08-22T09:38:23.857Z,75.68
2022-08-22T09:41:12.713Z,75.44
2022-08-22T09:44:06.490Z,75.06
2022-08-22T09:46:55.364Z,75.35
2022-08-22T09:49:32.889Z,75.32
2022-08-22T09:52:33.097Z,74.90
2022-08-22T09:55:11.804Z,75.41
2022-08-22T09:58:03.404Z,75.02
2022-08-22T10:00:54.958Z,74.74
2022-08-22T10:03:41.463Z,74.80
2022-08-22T10:06:20.205Z,74.78
2022-08-22T10:08:56.050Z,74.72
2022-08-22T10:11:42.312Z,74.81
2022-08-22T10:14:22.381Z,74.86
2022-08-22T10:17:29.917Z,73.24
2022-08-22T10:20:10.289Z,73.10
2022-08-22T10:23:17.229Z,72.11
2022-08-22T10:25:52.874Z,70.95
2022-08-22T10:28:49.748Z,69.01
2022-08-22T10:31:30.757Z,68.73
2022-08-22T10:34:25.123Z,67.74
2022-08-22T10:37:36.651Z,66.79
2022-08-22T10:40:19.339Z,66.53
2022-08-22T10:43:16.137Z,65.59
2022-08-22T10:45:48.493Z,65.23
2022-08-22T10:48:25.883Z,64.52
2022-08-22T10:51:03.266Z,64.07
2022-08-22T10:56:55.955Z,64.08
2022-08-22T10:59:48.183Z,64.29
2022-08-22T11:02:42.224Z,66.28
2022-08-22T11:05:28.170Z,67.87
2022-08-22T11:08:13.761Z,69.86
2022-08-22T11:11:17.579Z,70.95
2022-08-22T11:14:24.403Z,71.47
2022-08-22T11:17:11.993Z,71.49
2022-08-22T11:20:28.209Z,72.00
2022-08-22T11:23:12.325Z,72.72
2022-08-22T11:25:43.733Z,73.07
2022-08-22T11:28:45.145Z,73.17
2022-08-22T11:31:47.268Z,73.55
2022-08-22T11:34:44.803Z,74.16
2022-08-22T11:37:43.499Z,74.00
2022-08-22T11:40:22.800Z,73.71
2022-08-22T11:42:59.181Z,73.71
2022-08-22T11:45:44.423Z,74.23
2022-08-22T11:48:25.350Z,74.20
2022-08-22T11:50:58.789Z,73.92
2022-08-22T11:53:32.443Z,73.81
2022-08-22T11:56:18.713Z,73.92
2022-08-22T11:59:15.728Z,74.11
2022-08-22T12:01:52.739Z,74.52
2022-08-22T12:04:28.760Z,74.40
2022-08-22T12:07:12.528Z,74.24
2022-08-22T12:09:47.806Z,73.92
2022-08-22T12:12:27.999Z,74.08
2022-08-22T12:15:03.283Z,73.80
2022-08-22T12:18:08.917Z,73.84
2022-08-22T12:20:45.307Z,73.96
2022-08-22T12:23:30.384Z,73.67
2022-08-22T12:26:23.604Z,74.11
2022-08-22T12:29:15.597Z,73.82
2022-08-22T12:32:27.466Z,73.83
2022-08-22T12:34:55.400Z,73.80
2022-08-22T12:37:52.805Z,73.27
2022-08-22T12:40:48.189Z,73.75
2022-08-22T12:43:19.655Z,73.30
2022-08-22T12:46:31.422Z,72.75
2022-08-22T12:49:29.339Z,72.41
2022-08-22T12:51:59.829Z,72.28
2022-08-22T12:54:50.355Z,72.15
2022-08-22T12:57:36.368Z,72.17
2022-08-22T13:00:27.003Z,72.16
2022-08-22T13:03:01.772Z,71.96
2022-08-22T13:05:34.314Z,72.39
2022-08-22T13:08:31.551Z,72.67
2022-08-22T13:11:09.952Z,72.73
2022-08-22T13:13:56.808Z,72.56
2022-08-22T13:16:34.723Z,72.69
2022-08-22T13:19:13.701Z,73.02
2022-08-22T13:22:07.025Z,73.00
2022-08-22T13:24:41.921Z,73.05
2022-08-22T13:27:50.999Z,73.20
2022-08-22T13:30:32.464Z,73.43
2022-08-22T13:33:09.801Z,73.45
2022-08-22T13:35:52.161Z,73.59
2022-08-22T13:38:46.307Z,73.32
2022-08-22T13:41:26.269Z,73.63
2022-08-22T13:44:09.995Z,73.72
2022-08-22T13:46:52.736Z,74.11
2022-08-22T13:49:35.202Z,74.01
2022-08-22T13:52:29.974Z,74.28
2022-08-22T13:55:12.606Z,74.49
2022-08-22T13:57:46.171Z,75.06
2022-08-22T14:00:29.265Z,75.60
2022-08-22T14:03:01.411Z,75.77
2022-08-22T14:05:39.619Z,76.21
2022-08-22T14:08:18.394Z,76.45
2022-08-22T14:10:58.020Z,76.26
2022-08-22T14:13:36.723Z,76.49
2022-08-22T14:16:10.364Z,76.99
2022-08-22T14:18:45.566Z,77.12
2022-08-22T14:21:40.669Z,77.23
2022-08-22T14:24:27.169Z,77.20
2022-08-22T14:27:05.707Z,77.27
2022-08-22T14:29:50.117Z,77.04
2022-08-22T14:32:23.030Z,76.83
2022-08-22T14:35:23.309Z,76.76
2022-08-22T14:38:27.283Z,77.54
2022-08-22T14:41:04.031Z,77.80
2022-08-22T14:43:32.994Z,77.69
2022-08-22T14:46:08.663Z,77.82
2022-08-22T14:48:42.483Z,77.95
2022-08-22T14:51:21.304Z,78.20
2022-08-22T14:53:50.198Z,78.38
2022-08-22T14:56:29.784Z,79.04
2022-08-22T14:59:06.632Z,79.10
2022-08-22T15:01:53.139Z,79.28
2022-08-22T15:04:49.840Z,79.43
2022-08-22T15:07:28.363Z,79.57
2022-08-22T15:10:33.226Z,79.45
2022-08-22T15:13:07.988Z,79.87
2022-08-22T15:15:54.988Z,79.81
2022-08-22T15:18:23.567Z,79.86
2022-08-22T15:21:08.673Z,79.65
2022-08-22T15:23:45.282Z,79.58
2022-08-22T15:26:20.918Z,79.81
2022-08-22T15:28:57.230Z,80.12
2022-08-22T15:31:25.569Z,79.97
2022-08-22T15:34:06.850Z,80.04
2022-08-22T15:36:34.691Z,80.28
2022-08-22T15:39:34.883Z,80.48
2022-08-22T15:42:05.777Z,80.46
2022-08-22T15:44:40.615Z,80.36
2022-08-22T15:47:31.551Z,80.67
2022-08-22T15:50:10.495Z,80.83
2022-08-22T15:53:07.058Z,80.88
2022-08-22T15:55:35.581Z,80.98
2022-08-22T15:58:20.836Z,80.81
2022-08-22T16:01:09.970Z,80.91
2022-08-22T16:04:14.430Z,80.92
2022-08-22T16:06:55.229Z,81.01
2022-08-22T16:09:46.301Z,81.01
2022-08-22T16:12:29.654Z,80.90
2022-08-22T16:14:59.031Z,80.91
2022-08-22T16:17:29.644Z,81.12
2022-08-22T16:20:19.930Z,81.01
2022-08-22T16:22:56.780Z,80.96
2022-08-22T16:25:44.619Z,81.29
2022-08-22T16:28:36.132Z,81.28
2022-08-22T16:31:35.729Z,81.35
2022-08-22T16:34:18.669Z,81.17
2022-08-22T16:37:21.601Z,81.19
2022-08-22T16:40:01.726Z,81.13
2022-08-22T16:42:39.216Z,81.25
2022-08-22T16:45:39.499Z,80.97
2022-08-22T16:48:39.574Z,81.08
2022-08-22T16:51:18.563Z,81.13
2022-08-22T16:54:07.393Z,81.05
2022-08-22T16:57:15.488Z,81.14
2022-08-22T17:00:05.017Z,81.31
2022-08-22T17:03:06.366Z,81.41
2022-08-22T17:05:55.812Z,81.40
2022-08-22T17:08:41.900Z,81.40
2022-08-22T17:11:56.180Z,81.77
2022-08-22T17:14:56.674Z,81.72
2022-08-22T17:17:59.870Z,82.11
2022-08-22T17:20:49.688Z,81.81
2022-08-22T17:23:38.877Z,82.02
2022-08-22T17:26:27.543Z,82.11
2022-08-22T17:29:53.801Z,82.29
2022-08-22T17:32:46.701Z,82.18
2022-08-22T17:35:40.272Z,82.45
2022-08-22T17:38:13.593Z,82.37
2022-08-22T17:40:53.468Z,82.56
2022-08-22T17:43:39.976Z,82.51
2022-08-22T17:46:41.483Z,82.64
2022-08-22T17:49:32.763Z,82.53
2022-08-22T17:52:00.341Z,82.65
2022-08-22T17:54:45.964Z,83.00
2022-08-22T17:57:33.448Z,82.96
2022-08-22T18:00:13.269Z,82.89
2022-08-22T18:03:08.988Z,82.91
2022-08-22T18:05:47.179Z,82.93
2022-08-22T18:09:13.305Z,83.32
2022-08-22T18:11:44.784Z,83.32
2022-08-22T18:14:21.441Z,83.04
2022-08-22T18:16:52.409Z,83.20
2022-08-22T18:19:55.609Z,83.04
2022-08-22T18:22:41.617Z,82.98
2022-08-22T18:25:18.283Z,83.05
2022-08-22T18:27:54.436Z,83.29
2022-08-22T18:30:23.835Z,83.45
2022-08-22T18:33:01.774Z,83.28
2022-08-22T18:35:59.116Z,83.31
2022-08-22T18:38:35.544Z,83.13
2022-08-22T18:41:13.339Z,83.29
2022-08-22T18:43:48.192Z,83.64
2022-08-22T18:46:37.594Z,83.50
2022-08-22T18:49:25.028Z,83.41
2022-08-22T18:52:13.816Z,83.75
2022-08-22T18:55:06.082Z,83.54
2022-08-22T18:57:52.493Z,83.77
2022-08-22T19:00:40.506Z,84.24
2022-08-22T19:03:17.058Z,83.75
2022-08-22T19:06:01.129Z,84.15
2022-08-22T19:08:38.689Z,84.06
2022-08-22T19:11:19.889Z,83.74
2022-08-22T19:13:54.821Z,84.14
2022-08-22T19:16:28.388Z,84.37
2022-08-22T19:19:01.633Z,84.30
2022-08-22T19:21:47.605Z,84.56
2022-08-22T19:24:27.391Z,84.61
2022-08-22T19:27:07.059Z,84.49
2022-08-22T19:29:34.604Z,84.46
2022-08-22T19:32:12.916Z,84.94
2022-08-22T19:34:47.649Z,84.79
2022-08-22T19:37:30.801Z,84.92
2022-08-22T19:40:10.118Z,84.81
2022-08-22T19:42:44.193Z,84.83
2022-08-22T19:45:27.246Z,84.92
2022-08-22T19:48:01.402Z,85.11
2022-08-22T19:50:34.221Z,84.98
2022-08-22T19:53:31.192Z,84.89
2022-08-22T19:56:21.761Z,85.15
2022-08-22T19:59:07.360Z,85.14
2022-08-22T20:01:56.258Z,84.90
2022-08-22T20:04:36.100Z,85.21
2022-08-22T20:07:15.346Z,85.07
2022-08-22T20:10:01.716Z,84.97
2022-08-22T20:12:29.273Z,85.34
2022-08-22T20:14:57.184Z,85.16
2022-08-22T20:17:24.761Z,85.32
2022-08-22T20:22:52.891Z,85.84
2022-08-22T20:25:41.842Z,85.53
2022-08-22T20:28:30.639Z,85.55
2022-08-22T20:31:01.116Z,85.94
2022-08-22T20:33:36.943Z,85.86
2022-08-22T20:36:28.005Z,86.15
2022-08-22T20:39:02.653Z,85.93
2022-08-22T20:41:40.527Z,85.56
2022-08-22T20:44:18.419Z,85.74
2022-08-22T20:46:46.285Z,85.71
2022-08-22T20:49:20.369Z,85.77
2022-08-22T20:51:54.561Z,85.44
2022-08-22T20:54:24.898Z,85.86
2022-08-22T20:56:55.192Z,85.51
2022-08-22T20:59:29.769Z,85.58
2022-08-22T21:02:04.862Z,85.38
2022-08-22T21:04:57.640Z,85.47
2022-08-22T21:07:35.026Z,85.61
2022-08-22T21:10:27.863Z,85.24
2022-08-22T21:13:11.063Z,85.27
2022-08-22T21:15:40.772Z,85.52
2022-08-22T21:18:11.766Z,85.53
2022-08-22T21:20:40.406Z,85.36
2022-08-22T21:23:13.848Z,85.57
2022-08-22T21:25:59.204Z,85.37
2022-08-22T21:28:40.672Z,85.62
2022-08-22T21:31:14.863Z,85.45
2022-08-22T21:33:45.683Z,85.68
2022-08-22T21:36:21.169Z,85.40
2022-08-22T21:39:01.119Z,85.31
2022-08-22T21:41:39.682Z,85.66
2022-08-22T21:44:37.740Z,85.65
2022-08-22T21:47:31.290Z,85.49
2022-08-22T21:50:09.774Z,85.26
2022-08-22T21:52:44.193Z,85.59
2022-08-22T21:55:36.557Z,85.42
2022-08-22T21:58:35.465Z,85.64
2022-08-22T22:01:29.144Z,85.58
2022-08-22T22:04:00.208Z,85.56
2022-08-22T22:06:27.847Z,85.29
2022-08-22T22:08:55.524Z,85.46
2022-08-22T22:11:23.140Z,85.65
2022-08-22T22:13:50.946Z,85.61
2022-08-22T22:16:25.583Z,85.38
2022-08-22T22:18:53.770Z,85.60
2022-08-22T22:21:21.502Z,85.57
2022-08-22T22:23:50.697Z,85.41
2022-08-22T22:26:18.876Z,85.46
2022-08-22T22:28:48.313Z,85.74
2022-08-22T22:31:18.818Z,85.34
2022-08-22T22:33:46.444Z,85.53
2022-08-22T22:36:21.275Z,85.32
2022-08-22T22:38:51.700Z,85.78
2022-08-22T22:41:23.457Z,85.64
2022-08-22T22:43:55.327Z,85.55
2022-08-22T22:46:23.981Z,85.66
2022-08-22T22:48:51.918Z,85.69
2022-08-22T22:51:19.876Z,85.67
2022-08-22T22:53:48.144Z,85.89
2022-08-22T22:56:21.266Z,85.79
2022-08-22T22:58:50.681Z,85.93
2022-08-22T23:01:27.285Z,85.58
2022-08-22T23:03:57.476Z,85.85
2022-08-22T23:06:27.792Z,85.55
2022-08-22T23:08:56.320Z,85.74
2022-08-22T23:11:27.964Z,85.82
2022-08-22T23:13:56.348Z,85.60
2022-08-22T23:16:28.003Z,85.86
2022-08-22T23:18:56.432Z,85.85
2022-08-22T23:21:27.064Z,85.76
2022-08-22T23:23:59.808Z,85.84
2022-08-22T23:26:28.283Z,85.83
2022-08-22T23:28:56.553Z,85.80
2022-08-22T23:31:34.433Z,85.73
2022-08-22T23:34:06.304Z,86.14
2022-08-22T23:36:34.583Z,85.88
2022-08-22T23:39:02.837Z,85.80
2022-08-22T23:41:30.459Z,85.66
2022-08-22T23:43:58.322Z,85.83
2022-08-22T23:46:27.191Z,85.77
2022-08-22T23:48:55.087Z,85.95
2022-08-22T23:51:24.937Z,86.02
2022-08-22T23:53:53.617Z,86.05
2022-08-22T23:56:25.486Z,86.42
2022-08-22T23:58:53.460Z,86.30
